Time;durP1;ratioP1;P1;durP2;ratioP2;P2;SDS_P1;SDS_P2;PMS_P1;PMS_P2;Temp;Humidity;BMP_temperature;BMP_pressure;BME280_temperature;BME280_humidity;BME280_pressure;Samples;Min_cycle;Max_cycle;Signal;HPM_P1;HPM_P2
2022/09/10 00:02:01;;;;;;;40.17;37.28;;;;;;;19.28;55.67;100778.88;5053798;28;20392;-74
2022/09/10 00:04:27;;;;;;;38.35;36.25;;;;;;;19.27;55.39;100782.72;5054776;28;20040;-73
2022/09/10 00:06:52;;;;;;;40.30;38.22;;;;;;;19.27;55.85;100787.38;5054305;28;20039;-73
2022/09/10 00:09:18;;;;;;;40.55;38.33;;;;;;;19.26;55.53;100780.28;5054600;28;20487;-74
2022/09/10 00:11:44;;;;;;;44.60;42.20;;;;;;;19.24;55.34;100775.91;5052220;28;20393;-73
2022/09/10 00:14:14;;;;;;;39.95;37.47;;;;;;;19.23;55.97;100770.75;5054480;28;20033;-73
2022/09/10 00:16:40;;;;;;;40.33;37.45;;;;;;;19.22;55.75;100769.13;5054302;28;20086;-72
2022/09/10 00:19:05;;;;;;;38.85;36.35;;;;;;;19.20;55.68;100774.06;5042059;28;20501;-72
2022/09/10 00:21:31;;;;;;;40.33;37.88;;;;;;;19.20;55.74;100768.59;5054689;28;20451;-73
2022/09/10 00:23:57;;;;;;;39.10;36.92;;;;;;;19.19;55.66;100769.72;5053519;28;20533;-72
2022/09/10 00:26:26;;;;;;;38.60;36.40;;;;;;;19.19;55.61;100758.75;5053401;28;20075;-72
2022/09/10 00:28:53;;;;;;;38.72;36.65;;;;;;;19.17;55.83;100759.06;5053636;28;20032;-73
2022/09/10 00:31:21;;;;;;;39.58;37.42;;;;;;;19.17;55.75;100766.47;5054426;28;20032;-73
2022/09/10 00:33:46;;;;;;;40.38;37.83;;;;;;;19.16;55.39;100765.66;5042506;28;20026;-72
2022/09/10 00:36:21;;;;;;;37.45;35.33;;;;;;;19.16;55.45;100768.38;5033489;28;20114;-73
2022/09/10 00:38:47;;;;;;;40.95;38.25;;;;;;;19.15;55.56;100764.03;5034099;28;20478;-73
2022/09/10 00:41:14;;;;;;;40.55;38.00;;;;;;;19.15;55.67;100776.91;5033308;28;20470;-72
2022/09/10 00:43:47;;;;;;;43.22;40.63;;;;;;;19.14;55.80;100776.09;5032698;28;20060;-72
2022/09/10 00:46:19;;;;;;;41.40;38.90;;;;;;;19.13;55.51;100773.66;5034697;28;20029;-73
2022/09/10 00:48:44;;;;;;;42.08;39.70;;;;;;;19.11;55.72;100771.22;5042556;28;20036;-73
2022/09/10 00:51:10;;;;;;;42.15;39.83;;;;;;;19.12;55.99;100777.50;5052207;28;20044;-73
2022/09/10 00:53:35;;;;;;;43.08;39.72;;;;;;;19.11;55.54;100781.38;5053467;28;20072;-73
2022/09/10 00:56:03;;;;;;;39.90;37.40;;;;;;;19.10;55.83;100776.97;5052849;28;20041;-72
2022/09/10 00:58:28;;;;;;;41.38;38.88;;;;;;;19.10;55.76;100775.06;5053189;28;20041;-72
2022/09/10 01:00:59;;;;;;;40.78;38.25;;;;;;;19.09;55.60;100778.91;5051656;28;20036;-72
2022/09/10 01:03:24;;;;;;;41.35;38.95;;;;;;;19.09;55.89;100783.59;5052874;28;20032;-73
2022/09/10 01:05:50;;;;;;;43.05;40.58;;;;;;;19.09;55.60;100783.59;5052107;28;20106;-73
2022/09/10 01:08:17;;;;;;;37.97;35.88;;;;;;;19.07;56.10;100781.13;5038063;28;20041;-72
2022/09/10 01:11:25;;;;;;;42.20;39.22;;;;;;;19.07;55.71;100788.53;5033589;28;20049;-72
2022/09/10 01:14:23;;;;;;;41.00;38.65;;;;;;;19.05;55.68;100785.28;5022002;28;20045;-73
2022/09/10 01:17:06;;;;;;;40.17;37.83;;;;;;;19.04;56.05;100781.72;5040317;28;20060;-73
2022/09/10 01:19:40;;;;;;;39.35;36.83;;;;;;;19.02;55.44;100783.94;5033594;28;20044;-73
2022/09/10 01:22:27;;;;;;;40.33;38.05;;;;;;;19.01;55.84;100774.94;5033396;28;20091;-73
2022/09/10 01:25:19;;;;;;;40.63;38.15;;;;;;;19.02;55.59;100775.75;5033070;28;20281;-73
2022/09/10 01:27:49;;;;;;;43.38;40.70;;;;;;;19.01;56.07;100771.38;5042104;28;20132;-71
2022/09/10 01:30:33;;;;;;;41.38;38.90;;;;;;;19.00;55.99;100772.50;5053436;28;20032;-74
2022/09/10 01:33:19;;;;;;;40.50;37.67;;;;;;;19.00;56.09;100780.72;5052484;28;20032;-72
2022/09/10 01:35:51;;;;;;;41.08;38.13;;;;;;;18.99;55.95;100776.34;5052045;28;20029;-72
2022/09/10 01:38:25;;;;;;;39.67;37.13;;;;;;;18.98;56.07;100782.94;5052672;28;20078;-74
2022/09/10 01:40:53;;;;;;;39.88;37.70;;;;;;;18.97;56.11;100776.63;5052493;28;20028;-73
2022/09/10 01:43:19;;;;;;;38.00;35.60;;;;;;;18.98;55.63;100777.47;5052164;28;20029;-73
2022/09/10 01:45:51;;;;;;;41.03;38.17;;;;;;;18.96;56.13;100777.75;5051145;28;20465;-74
2022/09/10 01:48:16;;;;;;;39.75;37.45;;;;;;;18.97;55.87;100790.31;5052062;28;20029;-74
2022/09/10 01:50:44;;;;;;;40.42;38.08;;;;;;;18.97;55.89;100781.28;5050237;28;20082;-73
2022/09/10 01:53:46;;;;;;;39.63;37.30;;;;;;;18.96;56.04;100785.97;5052213;28;20426;-73
2022/09/10 01:56:23;;;;;;;39.20;36.97;;;;;;;18.96;55.70;100787.88;5052385;28;20397;-72
2022/09/10 01:58:49;;;;;;;40.35;38.08;;;;;;;18.95;56.03;100784.34;5052913;28;20039;-72
2022/09/10 02:01:27;;;;;;;42.17;39.35;;;;;;;18.94;56.46;100771.75;5044406;28;20026;-74
2022/09/10 02:03:58;;;;;;;40.83;38.22;;;;;;;18.95;56.23;100770.66;5037658;28;20028;-74
2022/09/10 02:06:28;;;;;;;40.85;37.60;;;;;;;18.94;56.08;100770.94;5052511;28;20033;-74
2022/09/10 02:08:56;;;;;;;42.20;39.83;;;;;;;18.94;56.33;100766.28;5051104;28;20392;-72
2022/09/10 02:11:21;;;;;;;41.85;39.30;;;;;;;18.94;56.45;100774.50;5053131;28;20493;-73
2022/09/10 02:13:47;;;;;;;41.65;39.00;;;;;;;18.93;56.26;100769.34;5033419;28;20033;-74
2022/09/10 02:16:22;;;;;;;39.80;37.38;;;;;;;18.92;56.25;100768.50;5032656;28;20072;-72
2022/09/10 02:18:48;;;;;;;42.08;39.28;;;;;;;18.91;55.90;100764.16;5032426;28;20076;-72
2022/09/10 02:21:14;;;;;;;40.65;38.22;;;;;;;18.91;56.47;100769.63;5032831;28;20455;-73
2022/09/10 02:23:56;;;;;;;40.85;38.42;;;;;;;18.90;56.42;100765.28;5030975;28;20064;-76
2022/09/10 02:26:22;;;;;;;39.80;37.65;;;;;;;18.89;56.19;100766.38;5047096;28;20103;-73
2022/09/10 02:28:48;;;;;;;39.88;37.50;;;;;;;18.90;56.41;100770.75;5031230;28;20045;-72
2022/09/10 02:31:14;;;;;;;40.67;38.47;;;;;;;18.89;56.58;100766.38;5032378;28;20037;-72
2022/09/10 02:33:40;;;;;;;40.38;38.05;;;;;;;18.89;56.47;100774.56;5036375;28;20499;-76
2022/09/10 02:36:06;;;;;;;40.20;37.85;;;;;;;18.90;56.60;100767.16;5048677;28;20235;-72
2022/09/10 02:38:31;;;;;;;39.40;37.17;;;;;;;18.89;56.67;100755.41;5037138;28;20032;-72
2022/09/10 02:40:58;;;;;;;44.03;40.65;;;;;;;18.88;56.90;100753.81;5051096;28;20093;-72
2022/09/10 02:43:27;;;;;;;40.30;37.75;;;;;;;18.88;56.72;100755.72;5051452;28;20033;-73
2022/09/10 02:45:57;;;;;;;42.28;39.58;;;;;;;18.88;56.92;100758.47;5051344;28;20473;-72
2022/09/10 02:48:26;;;;;;;40.95;38.50;;;;;;;18.87;56.97;100757.63;5051729;28;20346;-72
2022/09/10 02:50:53;;;;;;;41.13;38.70;;;;;;;18.87;56.78;100760.38;5049873;28;20112;-72
2022/09/10 02:53:19;;;;;;;45.38;42.42;;;;;;;18.86;57.03;100760.69;5083669;28;20037;-73
2022/09/10 02:55:45;;;;;;;41.30;38.30;;;;;;;18.86;57.07;100758.75;5051069;28;20154;-73
2022/09/10 02:58:12;;;;;;;42.38;39.88;;;;;;;18.87;57.00;100760.38;5050267;28;20116;-73
2022/09/10 03:00:38;;;;;;;41.58;39.00;;;;;;;18.86;57.16;100755.22;5051439;28;20087;-73
2022/09/10 03:03:04;;;;;;;41.03;38.35;;;;;;;18.85;57.07;100765.34;5041801;28;20033;-73
2022/09/10 03:05:29;;;;;;;43.28;40.42;;;;;;;18.85;56.71;100757.13;5031859;28;20041;-73
2022/09/10 03:07:54;;;;;;;42.75;39.65;;;;;;;18.84;57.25;100760.97;5049308;28;20094;-73
2022/09/10 03:10:20;;;;;;;40.67;38.08;;;;;;;18.84;57.04;100762.91;5051259;28;20116;-73
2022/09/10 03:12:46;;;;;;;41.78;39.13;;;;;;;18.84;57.01;100760.16;5051024;28;20387;-74
2022/09/10 03:15:13;;;;;;;42.38;39.72;;;;;;;18.83;57.05;100759.34;5050444;28;20078;-73
2022/09/10 03:17:38;;;;;;;40.70;38.20;;;;;;;18.83;57.16;100762.09;5049290;28;20037;-72
2022/09/10 03:20:04;;;;;;;41.95;39.15;;;;;;;18.83;56.76;100756.63;5050735;28;20060;-73
2022/09/10 03:22:30;;;;;;;41.40;38.70;;;;;;;18.82;56.92;100760.44;5051262;28;20083;-72
2022/09/10 03:24:57;;;;;;;42.22;39.53;;;;;;;18.83;56.66;100753.06;5049450;28;20041;-72
2022/09/10 03:27:24;;;;;;;42.38;39.72;;;;;;;18.83;56.54;100767.56;5050999;28;20050;-73
2022/09/10 03:29:49;;;;;;;42.20;39.72;;;;;;;18.82;56.53;100760.44;5050789;28;20033;-72
2022/09/10 03:32:15;;;;;;;42.65;39.78;;;;;;;18.81;57.02;100756.91;5051503;28;20048;-73
2022/09/10 03:34:40;;;;;;;41.55;38.90;;;;;;;18.83;57.15;100750.34;5049937;28;20461;-73
2022/09/10 03:37:05;;;;;;;41.22;38.58;;;;;;;18.81;57.38;100751.44;5050549;28;20123;-73
2022/09/10 03:39:31;;;;;;;41.70;39.03;;;;;;;18.81;57.20;100747.88;5049656;28;20381;-73
2022/09/10 03:41:57;;;;;;;43.20;40.38;;;;;;;18.81;57.30;100753.38;5048047;28;20473;-72
2022/09/10 03:44:22;;;;;;;42.60;39.63;;;;;;;18.80;57.32;100743.53;5031608;28;20053;-73
2022/09/10 03:46:50;;;;;;;43.38;40.53;;;;;;;18.80;57.08;100744.34;4997295;28;20061;-73
2022/09/10 03:49:15;;;;;;;45.72;42.78;;;;;;;18.80;57.07;100749.00;5031653;28;20024;-73
2022/09/10 03:51:41;;;;;;;41.05;38.33;;;;;;;18.80;57.05;100743.53;5030969;28;20398;-73
2022/09/10 03:54:07;;;;;;;43.45;40.60;;;;;;;18.78;57.15;100746.56;5036941;28;20493;-72
2022/09/10 03:56:32;;;;;;;42.53;39.30;;;;;;;18.79;57.17;100745.44;5051079;28;20111;-73
2022/09/10 03:58:59;;;;;;;41.10;38.30;;;;;;;18.79;56.99;100750.09;5031473;28;20447;-73
2022/09/10 04:01:24;;;;;;;41.42;38.58;;;;;;;18.78;57.16;100745.75;5040034;28;20029;-74
2022/09/10 04:03:53;;;;;;;40.88;38.38;;;;;;;18.79;57.09;100752.84;5051613;28;20029;-74
2022/09/10 04:06:19;;;;;;;41.22;38.83;;;;;;;18.78;56.95;100749.28;5049972;28;20159;-73
2022/09/10 04:08:48;;;;;;;42.42;39.45;;;;;;;18.79;57.24;100747.38;5050526;28;20121;-72
2022/09/10 04:11:14;;;;;;;44.53;41.58;;;;;;;18.78;56.88;100743.81;5049359;28;20025;-73
2022/09/10 04:13:39;;;;;;;42.50;40.05;;;;;;;18.79;57.23;100739.16;5050954;28;20150;-73
2022/09/10 04:16:05;;;;;;;42.97;40.28;;;;;;;18.79;56.97;100736.41;5049609;28;20473;-73
2022/09/10 04:18:33;;;;;;;41.88;39.22;;;;;;;18.78;57.41;100737.53;5050736;28;20481;-72
2022/09/10 04:20:59;;;;;;;41.35;38.58;;;;;;;18.79;57.16;100736.41;5032653;28;20036;-72
2022/09/10 04:23:24;;;;;;;42.58;39.58;;;;;;;18.78;57.07;100726.59;5048428;28;20457;-73
2022/09/10 04:25:51;;;;;;;41.88;39.45;;;;;;;18.78;57.05;100743.00;5051605;28;20086;-73
2022/09/10 04:28:16;;;;;;;40.92;38.22;;;;;;;18.77;57.51;100739.47;5053847;28;20087;-73
2022/09/10 04:30:45;;;;;;;42.90;40.40;;;;;;;18.78;57.32;100737.53;5054120;28;20092;-73
2022/09/10 04:33:11;;;;;;;44.13;41.33;;;;;;;18.77;57.35;100744.09;5052216;28;20481;-73
2022/09/10 04:35:38;;;;;;;42.80;39.83;;;;;;;18.77;57.40;100742.22;5034759;28;20034;-76
2022/09/10 04:38:04;;;;;;;43.67;40.88;;;;;;;18.77;57.57;100741.38;5052549;28;20448;-72
2022/09/10 04:40:29;;;;;;;40.58;37.92;;;;;;;18.76;57.66;100739.75;5054282;28;20029;-73
2022/09/10 04:42:55;;;;;;;41.13;38.75;;;;;;;18.75;57.67;100744.44;5052252;28;20029;-72
2022/09/10 04:45:20;;;;;;;39.13;36.92;;;;;;;18.75;57.13;100749.91;5036228;28;20461;-73
2022/09/10 04:47:46;;;;;;;42.70;40.00;;;;;;;18.74;57.06;100756.44;5053990;28;20469;-73
2022/09/10 04:50:14;;;;;;;43.05;39.78;;;;;;;18.75;57.20;100749.06;5052183;28;20348;-73
2022/09/10 04:52:40;;;;;;;42.22;39.40;;;;;;;18.75;57.26;100757.28;5052729;28;20029;-73
2022/09/10 04:55:06;;;;;;;44.20;41.40;;;;;;;18.74;57.57;100752.88;5042176;28;20528;-72
2022/09/10 04:57:32;;;;;;;43.97;40.78;;;;;;;18.74;57.51;100752.88;5034294;28;20303;-72
2022/09/10 04:59:57;;;;;;;42.55;39.63;;;;;;;18.73;57.71;100754.81;5025525;28;20037;-74
2022/09/10 05:02:22;;;;;;;45.15;41.92;;;;;;;18.74;57.19;100752.88;5038983;28;20029;-72
2022/09/10 05:04:49;;;;;;;44.08;40.50;;;;;;;18.73;57.40;100752.09;5052174;28;20167;-73
2022/09/10 05:07:15;;;;;;;43.90;40.85;;;;;;;18.73;57.49;100748.53;5035269;28;20032;-72
2022/09/10 05:09:40;;;;;;;43.28;40.10;;;;;;;18.74;57.15;100739.22;5036199;28;20051;-72
2022/09/10 05:12:06;;;;;;;46.55;42.65;;;;;;;18.73;57.65;100741.13;5033312;28;20045;-73
2022/09/10 05:14:32;;;;;;;41.70;38.97;;;;;;;18.73;57.28;100743.06;5033547;28;20040;-73
2022/09/10 05:16:58;;;;;;;43.88;40.72;;;;;;;18.73;57.40;100743.06;5033482;28;20045;-72
2022/09/10 05:19:24;;;;;;;42.72;39.97;;;;;;;18.73;57.81;100741.13;5032653;28;20036;-73
2022/09/10 05:21:49;;;;;;;44.58;41.67;;;;;;;18.73;57.85;100740.34;5033801;28;20037;-73
2022/09/10 05:24:15;;;;;;;44.58;41.75;;;;;;;18.72;57.50;100739.53;5051632;28;20503;-72
2022/09/10 05:26:41;;;;;;;43.47;41.00;;;;;;;18.72;57.83;100746.91;5052901;28;20052;-72
2022/09/10 05:29:06;;;;;;;38.30;35.92;;;;;;;18.72;57.74;100747.72;5052688;28;20082;-71
2022/09/10 05:31:33;;;;;;;41.90;39.50;;;;;;;18.71;57.35;100746.09;5051887;28;20356;-71
2022/09/10 05:34:00;;;;;;;40.67;38.33;;;;;;;18.71;57.52;100740.63;5052301;28;20128;-72
2022/09/10 05:36:26;;;;;;;43.03;40.22;;;;;;;18.72;57.48;100749.63;5052262;28;20120;-72
2022/09/10 05:38:53;;;;;;;44.53;41.28;;;;;;;18.72;57.38;100744.16;5051856;28;20083;-71
2022/09/10 05:41:19;;;;;;;43.00;40.20;;;;;;;18.71;57.48;100748.81;5050653;28;20083;-72
2022/09/10 05:43:45;;;;;;;41.40;38.88;;;;;;;18.72;57.84;100747.72;5052707;28;20036;-72
2022/09/10 05:46:10;;;;;;;41.20;38.65;;;;;;;18.72;57.98;100752.38;5052420;28;20056;-72
2022/09/10 05:48:36;;;;;;;41.88;39.28;;;;;;;18.72;57.69;100755.09;5045497;28;20049;-72
2022/09/10 05:51:02;;;;;;;42.40;39.80;;;;;;;18.72;57.72;100747.72;5032768;28;20033;-72
2022/09/10 05:53:27;;;;;;;41.45;38.95;;;;;;;18.72;57.73;100749.63;5033179;28;20509;-72
2022/09/10 05:55:52;;;;;;;40.05;37.78;;;;;;;18.71;57.82;100753.50;5032666;28;20049;-74
2022/09/10 05:58:18;;;;;;;42.78;40.25;;;;;;;18.70;57.49;100751.88;5031258;28;20547;-72
2022/09/10 06:00:43;;;;;;;41.38;38.97;;;;;;;18.72;57.55;100763.31;5032788;28;20429;-73
2022/09/10 06:03:09;;;;;;;46.10;42.97;;;;;;;18.70;57.63;100754.63;5035170;28;20076;-73
2022/09/10 06:05:34;;;;;;;42.35;39.65;;;;;;;18.72;58.04;100763.31;5052316;28;20037;-71
2022/09/10 06:08:00;;;;;;;44.70;41.97;;;;;;;18.71;57.69;100765.25;5042769;28;20064;-72
2022/09/10 06:10:25;;;;;;;44.90;41.88;;;;;;;18.72;58.28;100760.56;5052294;28;20037;-71
2022/09/10 06:12:50;;;;;;;45.30;42.42;;;;;;;18.71;58.37;100764.44;5052022;28;20381;-73
2022/09/10 06:15:17;;;;;;;47.08;43.30;;;;;;;18.71;58.10;100776.19;5045459;28;20052;-72
2022/09/10 06:17:43;;;;;;;43.65;40.72;;;;;;;18.72;57.93;100766.88;5066673;28;20030;-73
2022/09/10 06:20:12;;;;;;;44.47;41.60;;;;;;;18.71;58.01;100764.44;5052275;28;20102;-73
2022/09/10 06:22:38;;;;;;;47.53;44.33;;;;;;;18.72;58.24;100771.53;5049950;28;20041;-72
2022/09/10 06:25:05;;;;;;;44.45;41.65;;;;;;;18.71;58.40;100767.16;5051743;28;20097;-73
2022/09/10 06:27:31;;;;;;;40.38;37.97;;;;;;;18.70;58.07;100766.38;5050454;28;20607;-72
2022/09/10 06:29:56;;;;;;;48.00;45.08;;;;;;;18.71;57.84;100778.13;5051410;28;20037;-72
2022/09/10 06:32:22;;;;;;;43.42;40.55;;;;;;;18.71;57.66;100775.38;5050146;28;20145;-74
2022/09/10 06:34:47;;;;;;;43.72;40.95;;;;;;;18.71;57.92;100778.13;5033993;28;20429;-71
2022/09/10 06:37:13;;;;;;;42.25;39.65;;;;;;;18.71;58.00;100775.38;5051403;28;20358;-73
2022/09/10 06:39:39;;;;;;;42.95;40.25;;;;;;;18.71;58.29;100778.91;5050697;28;20044;-73
2022/09/10 06:42:04;;;;;;;41.88;39.50;;;;;;;18.71;58.41;100773.44;5051494;28;20476;-72
2022/09/10 06:44:30;;;;;;;42.90;40.40;;;;;;;18.70;58.14;100780.03;5046641;28;20038;-73
2022/09/10 06:46:55;;;;;;;43.13;40.40;;;;;;;18.70;58.03;100780.03;5032208;28;20103;-71
2022/09/10 06:49:20;;;;;;;43.00;40.30;;;;;;;18.69;57.98;100777.59;5040909;28;20037;-72
2022/09/10 06:51:48;;;;;;;41.97;39.08;;;;;;;18.70;57.80;100785.50;5051523;28;20044;-73
2022/09/10 06:54:14;;;;;;;42.90;40.20;;;;;;;18.70;57.85;100790.19;5050411;28;20374;-72
2022/09/10 06:56:41;;;;;;;46.72;43.72;;;;;;;18.71;58.05;100783.59;5050611;28;20095;-71
2022/09/10 06:59:07;;;;;;;45.15;42.28;;;;;;;18.71;58.41;100795.34;5051138;28;20405;-72
2022/09/10 07:01:32;;;;;;;41.15;38.45;;;;;;;18.71;58.71;100792.59;5041695;28;20531;-71
2022/09/10 07:04:00;;;;;;;43.28;40.58;;;;;;;18.72;58.32;100797.00;5050536;28;20094;-71
2022/09/10 07:06:26;;;;;;;42.58;39.55;;;;;;;18.72;58.85;100796.16;5050863;28;20029;-72
2022/09/10 07:08:56;;;;;;;41.97;39.47;;;;;;;18.71;58.60;100803.56;5051328;28;20049;-74
2022/09/10 07:11:24;;;;;;;43.47;40.97;;;;;;;18.72;58.39;100798.88;5051008;28;20037;-72
2022/09/10 07:13:51;;;;;;;43.95;41.15;;;;;;;18.71;58.12;100802.75;5049727;28;20454;-72
2022/09/10 07:16:22;;;;;;;45.85;42.53;;;;;;;18.71;58.81;100805.47;5049964;28;20025;-72
2022/09/10 07:18:49;;;;;;;44.42;41.75;;;;;;;18.72;58.82;100818.03;5051090;28;20079;-72
2022/09/10 07:21:15;;;;;;;45.08;41.65;;;;;;;18.72;58.75;100818.03;5050287;28;20029;-75
2022/09/10 07:23:41;;;;;;;44.42;41.78;;;;;;;18.72;58.82;100824.34;5031621;28;20107;-72
2022/09/10 07:26:11;;;;;;;43.72;40.85;;;;;;;18.73;58.87;100830.63;5070893;28;20112;-76
2022/09/10 07:28:38;;;;;;;41.67;39.08;;;;;;;18.70;58.52;100829.28;5050357;28;20025;-74
2022/09/10 07:31:18;;;;;;;43.35;40.85;;;;;;;18.71;58.28;100830.09;5051224;28;20033;-72
2022/09/10 07:33:45;;;;;;;42.63;40.08;;;;;;;18.70;58.58;100828.50;5051452;28;20040;-72
2022/09/10 07:36:11;;;;;;;44.67;41.80;;;;;;;18.71;58.85;100835.56;5050640;28;20040;-71
2022/09/10 07:38:37;;;;;;;43.08;40.05;;;;;;;18.70;58.76;100833.97;5049779;28;20389;-73
2022/09/10 07:41:04;;;;;;;42.30;39.83;;;;;;;18.71;58.61;100832.84;5051166;28;20111;-73
2022/09/10 07:43:29;;;;;;;39.25;37.05;;;;;;;18.72;58.65;100834.47;5050792;28;20044;-73
2022/09/10 07:45:55;;;;;;;44.58;41.80;;;;;;;18.71;58.41;100833.66;5050972;28;20033;-72
2022/09/10 07:48:21;;;;;;;39.53;37.22;;;;;;;18.71;58.22;100836.38;5032738;28;20037;-73
2022/09/10 07:50:47;;;;;;;41.67;39.05;;;;;;;18.72;58.58;100840.75;5043358;28;20037;-72
2022/09/10 07:53:12;;;;;;;44.67;41.88;;;;;;;18.72;58.65;100837.19;5030912;28;20168;-77
2022/09/10 07:55:38;;;;;;;42.08;39.33;;;;;;;18.73;58.51;100847.03;5063358;28;20033;-72
2022/09/10 07:58:04;;;;;;;43.35;40.55;;;;;;;18.74;58.85;100845.94;5062995;28;20036;-72
2022/09/10 08:00:30;;;;;;;42.03;39.15;;;;;;;18.74;59.08;100849.47;5038762;28;20044;-72
2022/09/10 08:02:55;;;;;;;42.92;39.33;;;;;;;18.74;59.28;100849.47;5054761;28;20028;-72
2022/09/10 08:05:20;;;;;;;43.55;40.67;;;;;;;18.75;58.85;100850.31;5043284;28;20060;-72
2022/09/10 08:07:46;;;;;;;47.08;44.00;;;;;;;18.75;59.41;100850.31;5034943;28;20033;-72
2022/09/10 08:10:12;;;;;;;43.03;40.45;;;;;;;18.76;59.13;100857.44;5049686;28;20503;-72
2022/09/10 08:12:39;;;;;;;43.10;40.13;;;;;;;18.76;59.54;100854.69;5053313;28;20118;-72
2022/09/10 08:15:07;;;;;;;43.92;41.13;;;;;;;18.77;59.45;100867.25;5051278;28;20480;-72
2022/09/10 08:17:33;;;;;;;42.63;39.93;;;;;;;18.77;59.33;100859.03;5034775;28;20057;-72
2022/09/10 08:19:58;;;;;;;42.70;39.95;;;;;;;18.77;59.10;100870.81;5066837;28;20382;-72
2022/09/10 08:22:24;;;;;;;44.38;41.35;;;;;;;18.77;59.35;100876.31;5034725;28;20033;-72
2022/09/10 08:24:50;;;;;;;38.45;36.30;;;;;;;18.77;59.22;100873.56;5034392;28;20044;-72
2022/09/10 08:27:16;;;;;;;43.22;40.67;;;;;;;18.77;59.15;100872.72;5033578;28;20144;-73
2022/09/10 08:29:42;;;;;;;42.10;39.67;;;;;;;18.78;59.29;100880.66;5035125;28;20393;-73
2022/09/10 08:32:08;;;;;;;40.88;38.67;;;;;;;18.78;58.80;100877.91;5053448;28;20037;-72
2022/09/10 08:34:34;;;;;;;40.53;38.28;;;;;;;18.79;59.11;100884.19;5052874;28;20090;-72
2022/09/10 08:37:02;;;;;;;40.83;38.63;;;;;;;18.80;59.37;100886.66;5054244;28;20037;-72
2022/09/10 08:39:27;;;;;;;39.90;37.55;;;;;;;18.79;59.72;100890.47;5053743;28;20457;-73
2022/09/10 08:42:08;;;;;;;42.22;39.80;;;;;;;18.80;59.84;100888.56;5052689;28;20132;-71
2022/09/10 08:44:48;;;;;;;39.78;36.88;;;;;;;18.81;59.06;100898.41;5052939;28;20033;-72
2022/09/10 08:47:26;;;;;;;40.83;38.58;;;;;;;18.81;59.06;100901.13;5053742;28;20522;-74
2022/09/10 08:50:06;;;;;;;40.90;38.40;;;;;;;18.80;59.69;100903.06;5039483;28;20115;-73
2022/09/10 08:52:53;;;;;;;40.42;38.08;;;;;;;18.82;59.64;100913.69;5033716;28;20025;-73
2022/09/10 08:55:18;;;;;;;41.88;39.13;;;;;;;18.83;59.65;100903.59;5033809;28;20029;-72
2022/09/10 08:57:49;;;;;;;40.33;37.88;;;;;;;18.83;59.95;100898.94;5034026;28;20125;-72
2022/09/10 09:00:32;;;;;;;40.97;38.33;;;;;;;18.85;59.81;100910.41;5033878;28;20034;-80
2022/09/10 09:03:15;;;;;;;41.13;38.63;;;;;;;18.86;59.72;100911.22;5033830;28;20389;-72
2022/09/10 09:05:52;;;;;;;40.72;38.22;;;;;;;18.86;59.66;100913.94;5033637;28;20037;-73
2022/09/10 09:08:32;;;;;;;41.95;39.20;;;;;;;18.87;60.41;100912.81;5033615;28;20477;-72
2022/09/10 09:11:26;;;;;;;40.08;37.75;;;;;;;18.89;59.82;100919.63;5034067;28;20147;-73
2022/09/10 09:14:24;;;;;;;39.90;37.20;;;;;;;18.89;60.44;100914.16;5033478;28;20424;-73
2022/09/10 09:16:59;;;;;;;;;;;;;;;18.89;59.17;100919.63;5034386;28;20062;-73
2022/09/10 09:19:50;;;;;;;40.45;37.92;;;;;;;18.89;59.48;100924.31;5032792;28;19991;-72
2022/09/10 09:22:39;;;;;;;39.28;37.03;;;;;;;18.90;59.67;100912.22;5039515;28;20025;-72
2022/09/10 09:25:21;;;;;;;39.17;36.80;;;;;;;18.91;59.66;100922.91;5051058;28;20037;-72
2022/09/10 09:27:49;;;;;;;36.35;34.58;;;;;;;18.91;60.02;100920.16;5053067;28;20099;-73
2022/09/10 09:30:19;;;;;;;38.75;36.55;;;;;;;18.93;59.76;100917.13;5053420;28;20437;-75
2022/09/10 09:32:45;;;;;;;39.15;36.80;;;;;;;18.94;59.53;100925.03;5033659;28;20022;-73
2022/09/10 09:35:53;;;;;;;38.33;36.22;;;;;;;18.96;59.98;100919.28;5033486;28;20039;-72
2022/09/10 09:38:22;;;;;;;39.70;37.47;;;;;;;18.97;60.17;100921.72;4991658;28;20125;-80
2022/09/10 09:40:57;;;;;;;40.40;37.38;;;;;;;18.98;60.39;100928.81;5027393;28;20041;-73
2022/09/10 09:43:51;;;;;;;38.08;35.83;;;;;;;19.01;60.16;100927.44;5051278;28;20389;-72
2022/09/10 09:46:19;;;;;;;39.67;37.28;;;;;;;19.02;60.33;100931.78;5033142;28;20033;-73
2022/09/10 09:48:46;;;;;;;39.27;36.97;;;;;;;19.03;60.48;100925.22;5033072;28;20040;-72
2022/09/10 09:51:20;;;;;;;39.40;36.88;;;;;;;19.05;60.67;100931.22;5033128;28;20052;-72
2022/09/10 09:53:48;;;;;;;39.00;36.72;;;;;;;19.07;60.66;100928.16;5046809;28;20075;-73
2022/09/10 09:56:29;;;;;;;40.15;37.95;;;;;;;19.10;61.02;100927.56;5052428;28;20035;-72
2022/09/10 09:58:57;;;;;;;38.00;35.78;;;;;;;19.10;60.53;100922.09;5052032;28;20110;-72
2022/09/10 10:01:25;;;;;;;39.85;37.17;;;;;;;19.13;60.61;100918.78;5031494;28;20136;-72
2022/09/10 10:03:52;;;;;;;39.35;37.40;;;;;;;19.14;60.37;100914.94;5033253;28;20025;-72
2022/09/10 10:06:22;;;;;;;40.42;38.28;;;;;;;19.16;60.68;100916.25;5038780;28;20025;-72
2022/09/10 10:09:06;;;;;;;39.88;37.13;;;;;;;19.17;60.91;100934.31;5052508;28;20024;-72
2022/09/10 10:11:49;;;;;;;40.88;38.58;;;;;;;19.20;60.75;100936.47;5050897;28;20029;-72
2022/09/10 10:14:18;;;;;;;40.78;38.40;;;;;;;19.22;60.48;100938.91;5052290;28;20396;-74
2022/09/10 10:16:47;;;;;;;40.33;37.50;;;;;;;19.24;60.84;100940.22;5051507;28;20057;-73
2022/09/10 10:19:32;;;;;;;41.22;38.67;;;;;;;19.26;60.83;100948.16;5032793;28;20112;-71
2022/09/10 10:22:19;;;;;;;41.10;38.58;;;;;;;19.28;61.07;100953.31;5032261;28;20599;-72
2022/09/10 10:24:50;;;;;;;39.17;36.97;;;;;;;19.29;60.70;100957.72;5030399;28;20071;-71
2022/09/10 10:27:21;;;;;;;39.47;37.10;;;;;;;19.31;61.22;100960.97;5032645;28;20087;-71
2022/09/10 10:29:59;;;;;;;40.63;37.72;;;;;;;19.32;61.47;100968.88;5031703;28;20026;-72
2022/09/10 10:32:38;;;;;;;40.83;38.13;;;;;;;19.33;61.05;100961.50;5031866;28;20033;-72
2022/09/10 10:35:36;;;;;;;41.85;38.92;;;;;;;19.34;61.25;100958.44;5032711;28;20136;-72
2022/09/10 10:38:21;;;;;;;38.70;36.42;;;;;;;19.36;60.67;100969.91;5031921;28;20034;-72
2022/09/10 10:41:34;;;;;;;39.55;37.17;;;;;;;19.40;61.52;100972.88;5031883;28;20033;-72
2022/09/10 10:44:12;;;;;;;39.33;37.22;;;;;;;19.41;61.17;100966.28;5050702;28;20460;-72
2022/09/10 10:47:04;;;;;;;42.00;39.42;;;;;;;19.41;60.73;100969.84;5052203;28;20029;-72
2022/09/10 10:49:48;;;;;;;40.05;37.55;;;;;;;19.44;61.18;100974.72;5051404;28;20021;-72
2022/09/10 10:52:28;;;;;;;37.85;35.90;;;;;;;19.46;60.64;100966.22;5051682;28;20029;-71
2022/09/10 10:55:06;;;;;;;41.03;38.75;;;;;;;19.48;61.14;100971.38;5051442;28;20029;-72
2022/09/10 10:58:02;;;;;;;40.63;37.83;;;;;;;19.49;61.36;100975.78;5050917;28;20258;-72
2022/09/10 11:00:39;;;;;;;40.10;37.92;;;;;;;19.50;61.07;100978.19;5050160;28;20465;-73
2022/09/10 11:03:14;;;;;;;40.67;38.47;;;;;;;19.53;60.89;100985.84;5050270;28;20473;-73
2022/09/10 11:06:07;;;;;;;40.03;37.70;;;;;;;19.55;61.15;100986.34;5050369;28;20029;-74
2022/09/10 11:08:41;;;;;;;43.58;40.85;;;;;;;19.57;61.43;100995.06;5042826;28;20041;-72
2022/09/10 11:11:14;;;;;;;41.25;38.63;;;;;;;19.60;61.73;100989.00;5050732;28;20028;-73
2022/09/10 11:13:57;;;;;;;38.90;36.80;;;;;;;19.62;61.11;100975.81;5050916;28;20108;-72
2022/09/10 11:16:31;;;;;;;40.78;38.38;;;;;;;19.64;61.24;100986.50;5036725;28;20044;-72
2022/09/10 11:19:34;;;;;;;40.65;38.70;;;;;;;19.66;61.74;100993.31;5050608;28;20552;-72
2022/09/10 11:22:09;;;;;;;39.90;37.88;;;;;;;19.67;61.35;100986.72;5042759;28;20367;-72
2022/09/10 11:24:50;;;;;;;41.53;38.90;;;;;;;19.70;62.10;100990.00;5042111;28;20362;-72